createdAt,value
2018-03-14T00:00:42.218Z,5.59
2018-03-14T00:03:10.456Z,5.58
2018-03-14T00:05:38.718Z,5.57
2018-03-14T00:08:06.951Z,5.61
2018-03-14T00:10:35.191Z,5.52
2018-03-14T00:13:03.449Z,5.59
2018-03-14T00:15:31.695Z,5.51
2018-03-14T00:17:59.936Z,5.48
2018-03-14T00:20:28.535Z,5.39
2018-03-14T00:22:56.784Z,5.54
2018-03-14T00:25:25.028Z,5.53
2018-03-14T00:27:53.281Z,5.48
2018-03-14T00:30:21.522Z,5.46
2018-03-14T00:32:49.771Z,5.44
2018-03-14T00:35:18.787Z,5.47
2018-03-14T00:37:47.796Z,5.41
2018-03-14T00:40:16.056Z,5.45
2018-03-14T00:42:45.064Z,5.41
2018-03-14T00:45:14.074Z,5.47
2018-03-14T00:47:42.323Z,5.43
2018-03-14T00:50:11.376Z,5.25
2018-03-14T00:52:39.765Z,5.22
2018-03-14T00:55:08.017Z,5.21
2018-03-14T00:57:37.036Z,5.22
2018-03-14T01:00:05.294Z,5.31
2018-03-14T01:02:33.553Z,5.19
2018-03-14T01:05:02.559Z,5.15
2018-03-14T01:07:31.576Z,5.11
2018-03-14T01:09:59.828Z,5.13
2018-03-14T01:12:28.891Z,5.15
2018-03-14T01:14:57.096Z,5.00
2018-03-14T01:17:25.337Z,4.92
2018-03-14T01:19:53.586Z,4.95
2018-03-14T01:22:21.841Z,4.93
2018-03-14T01:24:50.848Z,4.90
2018-03-14T01:27:19.876Z,5.01
2018-03-14T01:29:48.116Z,4.94
2018-03-14T01:32:17.142Z,4.92
2018-03-14T01:34:45.403Z,4.82
2018-03-14T01:37:14.416Z,4.91
2018-03-14T01:39:42.662Z,4.84
2018-03-14T01:42:10.908Z,4.81
2018-03-14T01:44:39.157Z,4.74
2018-03-14T01:47:07.396Z,4.72
2018-03-14T01:49:35.636Z,4.92
2018-03-14T01:52:03.892Z,4.82
2018-03-14T01:54:32.131Z,4.73
2018-03-14T01:57:00.388Z,4.72
2018-03-14T01:59:28.628Z,4.66
2018-03-14T02:01:56.892Z,4.63
2018-03-14T02:04:26.164Z,4.63
2018-03-14T02:06:54.408Z,4.58
2018-03-14T02:09:22.643Z,4.59
2018-03-14T02:11:51.664Z,4.58
2018-03-14T02:14:20.672Z,4.55
2018-03-14T02:16:48.932Z,4.52
2018-03-14T02:19:17.944Z,4.44
2018-03-14T02:21:46.213Z,4.37
2018-03-14T02:24:15.485Z,4.31
2018-03-14T02:26:43.716Z,4.25
2018-03-14T02:29:11.960Z,4.22
2018-03-14T02:31:40.213Z,4.22
2018-03-14T02:34:08.456Z,4.22
2018-03-14T02:36:54.292Z,4.21
2018-03-14T02:39:22.532Z,4.21
2018-03-14T02:41:50.787Z,4.20
2018-03-14T02:44:19.040Z,4.26
2018-03-14T02:46:49.292Z,4.27
2018-03-14T02:49:18.307Z,4.32
2018-03-14T02:51:46.544Z,4.32
2018-03-14T02:54:14.791Z,4.39
2018-03-14T02:56:43.028Z,4.32
2018-03-14T02:59:12.027Z,4.28
2018-03-14T03:01:40.292Z,4.26
2018-03-14T03:04:08.536Z,4.26
2018-03-14T03:06:36.776Z,4.29
2018-03-14T03:09:05.299Z,4.28
2018-03-14T03:11:33.543Z,4.39
2018-03-14T03:14:01.806Z,4.37
2018-03-14T03:16:30.816Z,4.33
2018-03-14T03:18:59.065Z,4.27
2018-03-14T03:21:27.312Z,4.25
2018-03-14T03:23:55.548Z,4.27
2018-03-14T03:26:24.568Z,4.25
2018-03-14T03:28:52.804Z,4.17
2018-03-14T03:31:21.057Z,4.11
2018-03-14T03:33:49.292Z,4.12
2018-03-14T03:36:17.540Z,4.17
2018-03-14T03:38:45.791Z,4.19
2018-03-14T03:41:14.043Z,4.18
2018-03-14T03:43:42.288Z,4.16
2018-03-14T03:46:10.559Z,4.13
2018-03-14T03:48:38.799Z,4.20
2018-03-14T03:51:07.044Z,4.16
2018-03-14T03:53:36.071Z,4.16
2018-03-14T03:56:04.329Z,4.16
2018-03-14T03:58:32.569Z,4.19
2018-03-14T04:01:00.820Z,4.16
2018-03-14T04:03:29.064Z,4.16
2018-03-14T04:05:58.080Z,4.19
2018-03-14T04:08:26.311Z,4.21
2018-03-14T04:10:54.576Z,4.24
2018-03-14T04:13:22.817Z,4.26
2018-03-14T04:15:51.060Z,4.28
2018-03-14T04:18:19.316Z,4.30
2018-03-14T04:20:47.558Z,4.32
2018-03-14T04:23:15.804Z,4.35
2018-03-14T04:25:44.832Z,4.35
2018-03-14T04:28:13.090Z,4.36
2018-03-14T04:30:42.094Z,4.37
2018-03-14T04:33:11.112Z,4.40
2018-03-14T04:35:39.355Z,4.42
2018-03-14T04:38:07.724Z,4.45
2018-03-14T04:40:35.984Z,4.40
2018-03-14T04:43:04.219Z,4.41
2018-03-14T04:45:32.476Z,4.39
2018-03-14T04:48:00.728Z,4.41
2018-03-14T04:50:28.977Z,4.42
2018-03-14T04:52:57.240Z,4.42
2018-03-14T04:55:26.256Z,4.84
2018-03-14T04:57:54.496Z,4.60
2018-03-14T05:00:23.515Z,4.51
2018-03-14T05:02:51.763Z,4.45
2018-03-14T05:05:20.034Z,4.45
2018-03-14T05:07:48.269Z,4.47
2018-03-14T05:10:16.519Z,4.57
2018-03-14T05:12:45.530Z,4.68
2018-03-14T05:15:14.560Z,4.64
2018-03-14T05:17:42.804Z,4.63
2018-03-14T05:20:13.059Z,4.63
2018-03-14T05:22:41.308Z,4.59
2018-03-14T05:25:10.325Z,4.61
2018-03-14T05:27:38.588Z,4.63
2018-03-14T05:30:07.591Z,4.61
2018-03-14T05:32:35.836Z,4.75
2018-03-14T05:35:04.092Z,4.72
2018-03-14T05:37:32.330Z,4.68
2018-03-14T05:40:01.343Z,4.79
2018-03-14T05:42:29.591Z,5.00
2018-03-14T05:44:58.612Z,4.86
2018-03-14T05:47:26.860Z,4.84
2018-03-14T05:49:55.112Z,4.61
2018-03-14T05:52:23.364Z,4.62
2018-03-14T05:54:51.609Z,4.46
2018-03-14T05:57:20.623Z,4.53
2018-03-14T05:59:48.880Z,4.49
2018-03-14T06:02:18.713Z,4.50
2018-03-14T06:04:48.964Z,4.56
2018-03-14T06:07:17.210Z,4.52
2018-03-14T06:09:46.232Z,4.62
2018-03-14T06:12:14.484Z,4.53
2018-03-14T06:14:43.504Z,4.64
2018-03-14T06:17:12.524Z,4.60
2018-03-14T06:19:40.764Z,4.64
2018-03-14T06:22:09.767Z,4.71
2018-03-14T06:24:38.594Z,4.73
2018-03-14T06:27:06.949Z,4.84
2018-03-14T06:29:35.943Z,5.03
2018-03-14T06:32:04.969Z,5.18
2018-03-14T06:34:33.217Z,5.24
2018-03-14T06:37:02.216Z,5.22
2018-03-14T06:39:31.252Z,5.29
2018-03-14T06:41:59.500Z,5.00
2018-03-14T06:44:27.752Z,5.02
2018-03-14T06:46:56.004Z,5.08
2018-03-14T06:49:24.239Z,5.02
2018-03-14T06:51:53.256Z,4.97
2018-03-14T06:54:21.510Z,4.84
2018-03-14T06:56:50.533Z,5.01
2018-03-14T06:59:36.392Z,5.00
2018-03-14T07:02:22.892Z,5.09
2018-03-14T07:05:09.472Z,5.11
2018-03-14T07:07:38.507Z,5.07
2018-03-14T07:10:06.765Z,5.13
2018-03-14T07:12:35.788Z,5.21
2018-03-14T07:15:04.040Z,5.34
2018-03-14T07:17:33.051Z,5.38
2018-03-14T07:20:01.310Z,5.44
2018-03-14T07:22:30.471Z,5.45
2018-03-14T07:24:58.717Z,5.48
2018-03-14T07:27:27.368Z,5.49
2018-03-14T07:29:55.636Z,5.45
2018-03-14T07:32:23.876Z,5.46
2018-03-14T07:34:52.116Z,5.42
2018-03-14T07:37:21.131Z,5.39
2018-03-14T07:39:50.214Z,5.38
2018-03-14T07:42:18.457Z,5.40
2018-03-14T07:44:46.712Z,5.47
2018-03-14T07:47:14.960Z,5.33
2018-03-14T07:49:43.968Z,5.36
2018-03-14T07:52:12.219Z,5.38
2018-03-14T07:54:40.470Z,5.33
2018-03-14T07:57:08.711Z,5.38
2018-03-14T07:59:36.968Z,5.39
2018-03-14T08:02:05.982Z,5.42
2018-03-14T08:04:35.111Z,5.33
2018-03-14T08:07:03.344Z,5.52
2018-03-14T08:09:32.353Z,5.46
2018-03-14T08:12:01.371Z,5.23
2018-03-14T08:14:29.615Z,5.09
2018-03-14T08:16:57.857Z,5.21
2018-03-14T08:19:26.109Z,5.36
2018-03-14T08:21:54.352Z,6.20
2018-03-14T08:24:22.599Z,7.42
2018-03-14T08:26:50.847Z,7.43
2018-03-14T08:29:19.083Z,8.11
2018-03-14T08:31:47.335Z,8.07
2018-03-14T08:34:15.590Z,8.48
2018-03-14T08:36:43.839Z,9.32
2018-03-14T08:39:12.851Z,10.46
2018-03-14T08:41:43.116Z,9.85
2018-03-14T08:44:11.374Z,8.93
2018-03-14T08:46:39.618Z,9.13
2018-03-14T08:49:07.867Z,9.24
2018-03-14T08:51:36.100Z,9.21
2018-03-14T08:54:04.368Z,9.17
2018-03-14T08:56:33.393Z,9.69
2018-03-14T08:59:01.702Z,9.91
2018-03-14T09:01:29.958Z,9.47
2018-03-14T09:03:58.216Z,9.74
2018-03-14T09:06:27.237Z,9.54
2018-03-14T09:08:55.491Z,9.11
2018-03-14T09:11:24.495Z,9.10
2018-03-14T09:13:53.511Z,9.07
2018-03-14T09:16:21.779Z,9.29
2018-03-14T09:18:50.777Z,9.01
2018-03-14T09:21:19.018Z,9.34
2018-03-14T09:23:47.279Z,9.03
2018-03-14T09:26:15.525Z,9.58
2018-03-14T09:28:43.782Z,9.82
2018-03-14T09:31:12.784Z,9.96
2018-03-14T09:33:41.912Z,10.49
2018-03-14T09:36:10.152Z,10.28
2018-03-14T09:38:39.157Z,10.40
2018-03-14T09:41:08.198Z,10.32
2018-03-14T09:43:36.452Z,11.03
2018-03-14T09:46:05.474Z,11.53
2018-03-14T09:48:33.712Z,11.22
2018-03-14T09:51:02.737Z,10.45
2018-03-14T09:53:31.009Z,10.12
2018-03-14T09:55:59.824Z,10.74
2018-03-14T09:58:28.085Z,10.78
2018-03-14T10:00:56.344Z,10.33
2018-03-14T10:03:25.352Z,10.54
2018-03-14T10:05:54.363Z,10.50
2018-03-14T10:08:22.625Z,10.26
2018-03-14T10:10:51.675Z,10.39
2018-03-14T10:13:19.911Z,10.06
2018-03-14T10:15:48.156Z,9.69
2018-03-14T10:18:16.449Z,9.78
2018-03-14T10:20:44.688Z,9.95
2018-03-14T10:23:12.948Z,10.01
2018-03-14T10:25:41.275Z,9.53
2018-03-14T10:28:09.447Z,9.99
2018-03-14T10:30:37.700Z,9.78
2018-03-14T10:33:05.944Z,9.39
2018-03-14T10:35:34.972Z,9.67
2018-03-14T10:38:03.218Z,10.60
2018-03-14T10:40:32.233Z,11.26
2018-03-14T10:43:00.502Z,12.12
2018-03-14T10:45:29.513Z,11.61
2018-03-14T10:47:57.793Z,11.49
2018-03-14T10:50:26.045Z,12.79
2018-03-14T10:52:55.057Z,14.41
2018-03-14T10:55:24.084Z,13.57
2018-03-14T10:57:52.355Z,13.73
2018-03-14T11:00:25.982Z,13.58
2018-03-14T11:02:59.769Z,11.91
2018-03-14T11:05:28.024Z,13.15
2018-03-14T11:07:57.041Z,15.87
2018-03-14T11:10:25.321Z,17.07
2018-03-14T11:12:53.567Z,15.46
2018-03-14T11:15:22.586Z,16.01
2018-03-14T11:17:50.860Z,17.64
2018-03-14T11:20:19.951Z,19.74
2018-03-14T11:22:49.405Z,18.81
2018-03-14T11:25:17.658Z,15.80
2018-03-14T11:27:45.911Z,16.86
2018-03-14T11:30:14.927Z,19.05
2018-03-14T11:32:43.940Z,17.44
2018-03-14T11:35:12.206Z,16.80
2018-03-14T11:37:41.213Z,16.81
2018-03-14T11:40:09.464Z,18.28
2018-03-14T11:42:38.491Z,17.73
2018-03-14T11:45:06.747Z,17.83
2018-03-14T11:47:35.770Z,16.37
2018-03-14T11:50:04.029Z,16.30
2018-03-14T11:52:33.059Z,16.97
2018-03-14T11:55:01.315Z,18.06
2018-03-14T11:57:31.575Z,18.65
2018-03-14T11:59:59.828Z,18.47
2018-03-14T12:02:28.087Z,18.55
2018-03-14T12:04:57.107Z,19.07
2018-03-14T12:07:25.414Z,18.95
2018-03-14T12:09:54.394Z,18.92
2018-03-14T12:12:22.682Z,19.73
2018-03-14T12:14:51.665Z,18.71
2018-03-14T12:17:19.928Z,18.54
2018-03-14T12:19:48.952Z,18.50
2018-03-14T12:22:22.612Z,17.81
2018-03-14T12:24:50.868Z,17.93
2018-03-14T12:27:19.120Z,18.94
2018-03-14T12:29:47.384Z,19.43
2018-03-14T12:32:15.648Z,19.37
2018-03-14T12:34:44.668Z,18.74
2018-03-14T12:37:12.908Z,16.83
2018-03-14T12:39:41.227Z,17.28
2018-03-14T12:42:09.483Z,16.80
2018-03-14T12:44:37.684Z,18.09
2018-03-14T12:47:05.973Z,19.30
2018-03-14T12:49:34.220Z,19.87
2018-03-14T12:52:03.253Z,20.71
2018-03-14T12:54:31.515Z,18.50
2018-03-14T12:57:00.545Z,17.38
2018-03-14T12:59:28.816Z,15.86
2018-03-14T13:01:57.071Z,14.91
2018-03-14T13:04:25.332Z,15.61
2018-03-14T13:06:53.576Z,16.96
2018-03-14T13:09:21.832Z,15.08
2018-03-14T13:11:50.145Z,13.89
2018-03-14T13:14:18.350Z,13.80
2018-03-14T13:16:46.601Z,14.27
2018-03-14T13:19:14.875Z,14.16
2018-03-14T13:21:43.119Z,13.75
2018-03-14T13:24:11.804Z,14.59
2018-03-14T13:26:40.837Z,15.82
2018-03-14T13:29:09.084Z,16.38
2018-03-14T13:31:38.098Z,16.41
2018-03-14T13:34:06.345Z,16.10
2018-03-14T13:36:35.370Z,15.01
2018-03-14T13:39:03.616Z,15.71
2018-03-14T13:41:32.612Z,16.13
2018-03-14T13:44:00.864Z,15.82
2018-03-14T13:46:29.128Z,15.69
2018-03-14T13:48:57.388Z,14.97
2018-03-14T13:51:25.632Z,15.00
2018-03-14T13:53:53.901Z,15.11
2018-03-14T13:56:22.152Z,14.80
2018-03-14T13:58:50.397Z,14.05
2018-03-14T14:01:18.664Z,13.48
2018-03-14T14:03:47.680Z,13.10
2018-03-14T14:06:15.924Z,12.22
2018-03-14T14:08:44.189Z,11.47
2018-03-14T14:11:12.440Z,12.10
2018-03-14T14:13:40.707Z,13.01
2018-03-14T14:16:08.968Z,13.38
2018-03-14T14:18:37.989Z,13.61
2018-03-14T14:21:06.237Z,13.68
2018-03-14T14:23:35.261Z,13.51
2018-03-14T14:26:03.512Z,13.43
2018-03-14T14:28:32.664Z,12.78
2018-03-14T14:31:02.396Z,12.80
2018-03-14T14:33:30.655Z,13.01
2018-03-14T14:35:58.917Z,12.70
2018-03-14T14:38:27.164Z,12.50
2018-03-14T14:40:55.458Z,12.17
2018-03-14T14:43:24.477Z,11.69
2018-03-14T14:45:52.725Z,11.25
2018-03-14T14:48:20.984Z,11.02
2018-03-14T14:50:49.824Z,11.48
2018-03-14T14:53:18.081Z,11.52
2018-03-14T14:55:46.335Z,11.47
2018-03-14T14:58:14.585Z,11.33
2018-03-14T15:00:42.836Z,11.13
2018-03-14T15:03:11.875Z,10.83
2018-03-14T15:05:40.112Z,10.61
2018-03-14T15:08:09.124Z,10.41
2018-03-14T15:10:37.376Z,10.48
2018-03-14T15:13:06.386Z,10.46
2018-03-14T15:15:35.408Z,10.98
2018-03-14T15:18:03.652Z,11.41
2018-03-14T15:20:32.692Z,11.79
2018-03-14T15:23:00.968Z,11.42
2018-03-14T15:25:29.213Z,11.16
2018-03-14T15:27:58.288Z,10.58
2018-03-14T15:30:26.480Z,10.44
2018-03-14T15:32:54.743Z,10.48
2018-03-14T15:35:23.189Z,10.57
2018-03-14T15:37:51.466Z,10.43
2018-03-14T15:40:20.481Z,10.63
2018-03-14T15:42:50.001Z,10.70
2018-03-14T15:45:19.066Z,10.33
2018-03-14T15:47:47.307Z,10.06
2018-03-14T15:50:15.561Z,9.86
2018-03-14T15:52:43.816Z,9.96
2018-03-14T15:55:12.076Z,9.83
2018-03-14T15:57:41.085Z,9.85
2018-03-14T16:00:09.327Z,9.55
2018-03-14T16:02:37.580Z,9.40
2018-03-14T16:05:05.822Z,9.28
2018-03-14T16:07:34.068Z,9.31
2018-03-14T16:10:02.320Z,9.24
2018-03-14T16:12:30.565Z,9.09
2018-03-14T16:14:58.800Z,9.05
2018-03-14T16:17:27.059Z,8.99
2018-03-14T16:19:55.316Z,8.84
2018-03-14T16:22:23.551Z,8.73
2018-03-14T16:24:52.572Z,8.68
2018-03-14T16:27:21.583Z,8.61
2018-03-14T16:29:49.832Z,8.57
2018-03-14T16:32:18.844Z,8.51
2018-03-14T16:34:47.868Z,8.42
2018-03-14T16:37:16.158Z,8.35
2018-03-14T16:39:44.389Z,8.21
2018-03-14T16:42:12.640Z,8.09
2018-03-14T16:44:40.941Z,8.04
2018-03-14T16:47:09.124Z,7.96
2018-03-14T16:49:38.152Z,7.81
2018-03-14T16:52:06.392Z,7.73
2018-03-14T16:54:34.642Z,7.62
2018-03-14T16:57:02.875Z,7.48
2018-03-14T16:59:31.897Z,7.33
2018-03-14T17:02:00.184Z,7.47
2018-03-14T17:04:28.422Z,7.32
2018-03-14T17:06:57.427Z,6.96
2018-03-14T17:09:26.444Z,6.78
2018-03-14T17:11:54.679Z,6.60
2018-03-14T17:14:27.280Z,6.53
2018-03-14T17:16:51.176Z,6.48
2018-03-14T17:19:20.184Z,6.33
2018-03-14T17:21:48.428Z,6.18
2018-03-14T17:24:16.675Z,6.00
2018-03-14T17:26:44.937Z,5.86
2018-03-14T17:29:13.176Z,5.75
2018-03-14T17:31:42.201Z,5.66
2018-03-14T17:34:10.442Z,5.51
2018-03-14T17:36:38.679Z,5.41
2018-03-14T17:39:06.935Z,5.44
2018-03-14T17:41:35.184Z,5.35
2018-03-14T17:44:03.424Z,5.24
2018-03-14T17:46:31.820Z,5.14
2018-03-14T17:49:00.075Z,5.17
2018-03-14T17:51:28.358Z,5.02
2018-03-14T17:53:57.356Z,5.06
2018-03-14T17:56:25.589Z,4.84
2018-03-14T17:58:54.605Z,4.75
2018-03-14T18:01:23.840Z,4.81
2018-03-14T18:03:52.091Z,4.75
2018-03-14T18:06:22.349Z,4.71
2018-03-14T18:08:50.605Z,4.59
2018-03-14T18:11:18.852Z,4.51
2018-03-14T18:13:47.096Z,4.48
2018-03-14T18:16:15.479Z,4.30
2018-03-14T18:18:43.736Z,4.23
2018-03-14T18:21:11.986Z,4.21
2018-03-14T18:23:41.008Z,4.24
2018-03-14T18:26:09.250Z,4.09
2018-03-14T18:28:37.493Z,4.00
2018-03-14T18:31:05.755Z,3.88
2018-03-14T18:33:34.006Z,3.82
2018-03-14T18:36:03.025Z,3.75
2018-03-14T18:38:31.324Z,3.71
2018-03-14T18:41:00.306Z,3.63
2018-03-14T18:43:28.572Z,3.57
2018-03-14T18:45:57.576Z,3.55
2018-03-14T18:48:26.844Z,3.50
2018-03-14T18:50:55.128Z,3.43
2018-03-14T18:53:23.379Z,3.35
2018-03-14T18:55:51.625Z,3.29
2018-03-14T18:58:20.760Z,3.26
2018-03-14T19:00:50.850Z,3.26
2018-03-14T19:03:19.091Z,3.25
2018-03-14T19:05:47.341Z,3.23
2018-03-14T19:08:15.600Z,3.16
2018-03-14T19:10:43.847Z,3.11
2018-03-14T19:13:12.862Z,3.07
2018-03-14T19:15:41.119Z,3.01
2018-03-14T19:18:10.132Z,2.97
2018-03-14T19:20:38.391Z,2.95
2018-03-14T19:23:07.424Z,2.91
2018-03-14T19:25:35.664Z,2.86
2018-03-14T19:28:03.916Z,2.85
2018-03-14T19:30:32.184Z,2.78
2018-03-14T19:33:00.428Z,2.68
2018-03-14T19:35:29.437Z,2.59
2018-03-14T19:37:57.700Z,2.52
2018-03-14T19:40:26.703Z,2.41
2018-03-14T19:42:54.948Z,2.36
2018-03-14T19:45:23.229Z,2.24
2018-03-14T19:47:51.470Z,2.13
2018-03-14T19:50:19.711Z,2.02
2018-03-14T19:52:48.732Z,1.94
2018-03-14T19:55:16.979Z,1.83
2018-03-14T19:57:45.223Z,1.70
2018-03-14T20:00:13.489Z,1.68
2018-03-14T20:02:41.759Z,1.58
2018-03-14T20:05:10.020Z,1.46
2018-03-14T20:07:39.040Z,1.39
2018-03-14T20:10:07.290Z,1.36
2018-03-14T20:12:36.323Z,1.27
2018-03-14T20:15:04.564Z,1.22
2018-03-14T20:17:33.583Z,1.21
2018-03-14T20:20:02.711Z,1.25
2018-03-14T20:22:31.681Z,1.34
2018-03-14T20:24:59.932Z,1.50
2018-03-14T20:27:28.204Z,1.32
2018-03-14T20:29:56.453Z,1.26
2018-03-14T20:32:24.692Z,1.24
2018-03-14T20:34:52.963Z,1.23
2018-03-14T20:37:21.968Z,1.34
2018-03-14T20:39:50.982Z,1.12
2018-03-14T20:42:19.246Z,0.93
2018-03-14T20:44:48.268Z,0.84
2018-03-14T20:47:16.521Z,0.81
2018-03-14T20:49:45.523Z,0.74
2018-03-14T20:52:13.787Z,0.69
2018-03-14T20:54:42.813Z,0.60
2018-03-14T20:57:11.060Z,0.55
2018-03-14T20:59:39.316Z,0.47
2018-03-14T21:02:07.569Z,0.46
2018-03-14T21:04:35.828Z,0.44
2018-03-14T21:07:04.093Z,0.48
2018-03-14T21:09:33.129Z,0.45
2018-03-14T21:12:02.109Z,0.35
2018-03-14T21:14:30.418Z,0.31
2018-03-14T21:16:59.396Z,0.28
2018-03-14T21:19:27.640Z,0.26
2018-03-14T21:21:56.672Z,0.19
2018-03-14T21:24:24.934Z,0.14
2018-03-14T21:26:53.952Z,0.08
2018-03-14T21:29:22.208Z,0.11
2018-03-14T21:31:51.238Z,-0.01
2018-03-14T21:34:19.487Z,-0.14
2018-03-14T21:36:48.400Z,-0.15
2018-03-14T21:39:16.720Z,-0.20
2018-03-14T21:41:44.944Z,-0.25
2018-03-14T21:44:13.977Z,-0.27
2018-03-14T21:46:42.251Z,-0.29
2018-03-14T21:49:10.504Z,-0.25
2018-03-14T21:51:38.760Z,-0.24
2018-03-14T21:54:07.044Z,-0.25
2018-03-14T21:56:35.291Z,-0.24
2018-03-14T21:59:03.589Z,-0.25
2018-03-14T22:01:31.968Z,-0.25
2018-03-14T22:04:00.225Z,-0.24
2018-03-14T22:06:28.477Z,-0.30
2018-03-14T22:08:56.751Z,-0.36
2018-03-14T22:11:25.021Z,-0.35
2018-03-14T22:13:54.046Z,-0.39
2018-03-14T22:16:22.452Z,-0.38
2018-03-14T22:18:50.703Z,-0.40
2018-03-14T22:21:18.958Z,-0.31
2018-03-14T22:23:48.000Z,-0.38
2018-03-14T22:26:16.251Z,-0.43
2018-03-14T22:28:45.240Z,-0.53
2018-03-14T22:31:14.283Z,-0.54
2018-03-14T22:33:42.530Z,-0.57
2018-03-14T22:36:10.780Z,-0.54
2018-03-14T22:38:39.052Z,-0.58
2018-03-14T22:41:07.308Z,-0.60
2018-03-14T22:43:35.569Z,-0.67
2018-03-14T22:46:03.844Z,-0.76
2018-03-14T22:48:32.111Z,-0.83
2018-03-14T22:51:00.367Z,-0.81
2018-03-14T22:53:28.644Z,-0.77
2018-03-14T22:55:56.895Z,-0.77
2018-03-14T22:58:25.159Z,-0.86
2018-03-14T23:00:53.429Z,-0.87
2018-03-14T23:03:21.691Z,-0.86
2018-03-14T23:05:49.956Z,-0.89
2018-03-14T23:08:18.992Z,-0.83
2018-03-14T23:10:47.243Z,-0.87
2018-03-14T23:13:15.516Z,-0.92
2018-03-14T23:15:44.532Z,-0.97
2018-03-14T23:18:12.793Z,-1.00
2018-03-14T23:20:41.832Z,-0.99
2018-03-14T23:23:10.104Z,-0.98
2018-03-14T23:25:38.352Z,-1.01
2018-03-14T23:28:07.388Z,-1.05
2018-03-14T23:30:35.653Z,-1.10
2018-03-14T23:33:03.920Z,-1.04
2018-03-14T23:35:32.932Z,-1.07
2018-03-14T23:38:01.201Z,-1.05
2018-03-14T23:40:30.225Z,-1.04
2018-03-14T23:42:58.638Z,-1.04
2018-03-14T23:45:26.896Z,-1.08
2018-03-14T23:47:55.144Z,-1.15
2018-03-14T23:50:23.928Z,-1.17
2018-03-14T23:52:52.970Z,-1.21
2018-03-14T23:55:21.225Z,-1.18
2018-03-14T23:57:49.483Z,-1.14
